sensor_id;sensor_type;location;lat;lon;timestamp;P1;durP1;ratioP1;P2;durP2;ratioP2
36829;SDS011;22767;47.328;9.640;2022-08-19T00:00:39;18.67;;;16.48;;
36829;SDS011;22767;47.328;9.640;2022-08-19T00:03:25;24.08;;;19.63;;
36829;SDS011;22767;47.328;9.640;2022-08-19T00:06:12;13.70;;;12.30;;
36829;SDS011;22767;47.328;9.640;2022-08-19T00:08:58;17.80;;;14.38;;
36829;SDS011;22767;47.328;9.640;2022-08-19T00:11:45;14.45;;;13.05;;
36829;SDS011;22767;47.328;9.640;2022-08-19T00:14:32;18.35;;;16.45;;
36829;SDS011;22767;47.328;9.640;2022-08-19T00:17:19;20.25;;;18.15;;
36829;SDS011;22767;47.328;9.640;2022-08-19T00:20:06;12.05;;;10.85;;
36829;SDS011;22767;47.328;9.640;2022-08-19T00:22:53;8.50;;;7.60;;
36829;SDS011;22767;47.328;9.640;2022-08-19T00:25:40;10.40;;;9.40;;
36829;SDS011;22767;47.328;9.640;2022-08-19T00:28:27;9.02;;;8.02;;
36829;SDS011;22767;47.328;9.640;2022-08-19T00:31:13;8.40;;;7.60;;
36829;SDS011;22767;47.328;9.640;2022-08-19T00:34:01;7.90;;;7.05;;
36829;SDS011;22767;47.328;9.640;2022-08-19T00:36:48;14.18;;;11.63;;
36829;SDS011;22767;47.328;9.640;2022-08-19T00:39:35;10.25;;;8.88;;
36829;SDS011;22767;47.328;9.640;2022-08-19T00:42:21;13.43;;;11.40;;
36829;SDS011;22767;47.328;9.640;2022-08-19T00:45:14;12.88;;;11.15;;
36829;SDS011;22767;47.328;9.640;2022-08-19T00:48:02;12.30;;;11.07;;
36829;SDS011;22767;47.328;9.640;2022-08-19T00:50:50;13.75;;;10.68;;
36829;SDS011;22767;47.328;9.640;2022-08-19T00:53:38;10.63;;;8.13;;
36829;SDS011;22767;47.328;9.640;2022-08-19T00:56:25;9.15;;;7.78;;
36829;SDS011;22767;47.328;9.640;2022-08-19T00:59:12;10.07;;;6.85;;
36829;SDS011;22767;47.328;9.640;2022-08-19T01:02:00;10.45;;;8.25;;
36829;SDS011;22767;47.328;9.640;2022-08-19T01:04:46;10.38;;;9.15;;
36829;SDS011;22767;47.328;9.640;2022-08-19T01:07:33;9.85;;;8.85;;
36829;SDS011;22767;47.328;9.640;2022-08-19T01:10:21;9.18;;;8.27;;
36829;SDS011;22767;47.328;9.640;2022-08-19T01:13:09;9.20;;;8.10;;
36829;SDS011;22767;47.328;9.640;2022-08-19T01:15:58;13.43;;;9.05;;
36829;SDS011;22767;47.328;9.640;2022-08-19T01:18:46;9.85;;;7.88;;
36829;SDS011;22767;47.328;9.640;2022-08-19T01:21:52;9.85;;;8.90;;
36829;SDS011;22767;47.328;9.640;2022-08-19T01:24:41;11.82;;;9.90;;
36829;SDS011;22767;47.328;9.640;2022-08-19T01:27:36;10.73;;;9.55;;
36829;SDS011;22767;47.328;9.640;2022-08-19T01:30:26;10.23;;;9.07;;
36829;SDS011;22767;47.328;9.640;2022-08-19T01:33:13;9.98;;;8.88;;
36829;SDS011;22767;47.328;9.640;2022-08-19T01:36:03;10.15;;;9.15;;
36829;SDS011;22767;47.328;9.640;2022-08-19T01:38:53;10.05;;;9.05;;
36829;SDS011;22767;47.328;9.640;2022-08-19T01:41:40;11.52;;;10.38;;
36829;SDS011;22767;47.328;9.640;2022-08-19T01:44:26;14.60;;;13.23;;
36829;SDS011;22767;47.328;9.640;2022-08-19T01:47:13;17.30;;;15.57;;
36829;SDS011;22767;47.328;9.640;2022-08-19T01:50:00;19.55;;;17.17;;
36829;SDS011;22767;47.328;9.640;2022-08-19T01:52:46;16.55;;;15.05;;
36829;SDS011;22767;47.328;9.640;2022-08-19T01:55:34;13.82;;;12.45;;
36829;SDS011;22767;47.328;9.640;2022-08-19T01:58:22;20.52;;;18.42;;
36829;SDS011;22767;47.328;9.640;2022-08-19T02:01:10;18.27;;;16.48;;
36829;SDS011;22767;47.328;9.640;2022-08-19T02:03:58;15.43;;;13.93;;
36829;SDS011;22767;47.328;9.640;2022-08-19T02:06:45;13.18;;;11.98;;
36829;SDS011;22767;47.328;9.640;2022-08-19T02:09:33;12.93;;;11.60;;
36829;SDS011;22767;47.328;9.640;2022-08-19T02:12:20;13.00;;;10.90;;
36829;SDS011;22767;47.328;9.640;2022-08-19T02:15:11;11.88;;;10.68;;
36829;SDS011;22767;47.328;9.640;2022-08-19T02:17:57;14.15;;;12.77;;
36829;SDS011;22767;47.328;9.640;2022-08-19T02:20:44;10.15;;;9.25;;
36829;SDS011;22767;47.328;9.640;2022-08-19T02:23:32;10.20;;;9.18;;
36829;SDS011;22767;47.328;9.640;2022-08-19T02:26:19;11.27;;;10.27;;
36829;SDS011;22767;47.328;9.640;2022-08-19T02:29:06;13.02;;;11.25;;
36829;SDS011;22767;47.328;9.640;2022-08-19T02:31:52;13.75;;;12.32;;
36829;SDS011;22767;47.328;9.640;2022-08-19T02:34:39;12.30;;;11.00;;
36829;SDS011;22767;47.328;9.640;2022-08-19T02:37:26;12.10;;;10.90;;
36829;SDS011;22767;47.328;9.640;2022-08-19T02:40:32;13.80;;;12.45;;
36829;SDS011;22767;47.328;9.640;2022-08-19T02:43:22;14.00;;;12.63;;
36829;SDS011;22767;47.328;9.640;2022-08-19T02:46:15;11.77;;;10.55;;
36829;SDS011;22767;47.328;9.640;2022-08-19T02:49:04;8.18;;;7.38;;
36829;SDS011;22767;47.328;9.640;2022-08-19T02:51:51;9.43;;;8.63;;
36829;SDS011;22767;47.328;9.640;2022-08-19T02:54:38;6.68;;;6.07;;
36829;SDS011;22767;47.328;9.640;2022-08-19T02:57:24;8.00;;;7.30;;
36829;SDS011;22767;47.328;9.640;2022-08-19T03:00:11;11.40;;;8.77;;
36829;SDS011;22767;47.328;9.640;2022-08-19T03:02:58;11.27;;;10.18;;
36829;SDS011;22767;47.328;9.640;2022-08-19T03:05:45;11.65;;;10.55;;
36829;SDS011;22767;47.328;9.640;2022-08-19T03:08:32;12.10;;;10.85;;
36829;SDS011;22767;47.328;9.640;2022-08-19T03:11:20;12.05;;;10.88;;
36829;SDS011;22767;47.328;9.640;2022-08-19T03:14:07;11.82;;;10.57;;
36829;SDS011;22767;47.328;9.640;2022-08-19T03:16:54;9.68;;;8.88;;
36829;SDS011;22767;47.328;9.640;2022-08-19T03:19:41;10.63;;;8.68;;
36829;SDS011;22767;47.328;9.640;2022-08-19T03:22:28;13.00;;;9.90;;
36829;SDS011;22767;47.328;9.640;2022-08-19T03:25:15;12.32;;;10.40;;
36829;SDS011;22767;47.328;9.640;2022-08-19T03:28:02;9.93;;;9.13;;
36829;SDS011;22767;47.328;9.640;2022-08-19T03:31:06;9.05;;;8.23;;
36829;SDS011;22767;47.328;9.640;2022-08-19T03:33:53;10.02;;;9.13;;
36829;SDS011;22767;47.328;9.640;2022-08-19T03:36:39;9.57;;;8.70;;
36829;SDS011;22767;47.328;9.640;2022-08-19T03:39:26;10.18;;;9.27;;
36829;SDS011;22767;47.328;9.640;2022-08-19T03:42:45;10.50;;;9.50;;
36829;SDS011;22767;47.328;9.640;2022-08-19T03:45:31;8.63;;;7.00;;
36829;SDS011;22767;47.328;9.640;2022-08-19T03:48:18;10.52;;;7.40;;
36829;SDS011;22767;47.328;9.640;2022-08-19T03:51:04;7.80;;;6.82;;
36829;SDS011;22767;47.328;9.640;2022-08-19T03:53:52;8.15;;;7.45;;
36829;SDS011;22767;47.328;9.640;2022-08-19T03:56:39;8.02;;;7.32;;
36829;SDS011;22767;47.328;9.640;2022-08-19T03:59:31;9.25;;;8.43;;
36829;SDS011;22767;47.328;9.640;2022-08-19T04:02:18;12.07;;;9.83;;
36829;SDS011;22767;47.328;9.640;2022-08-19T04:05:05;10.85;;;9.70;;
36829;SDS011;22767;47.328;9.640;2022-08-19T04:07:53;12.55;;;11.35;;
36829;SDS011;22767;47.328;9.640;2022-08-19T04:10:44;11.35;;;10.15;;
36829;SDS011;22767;47.328;9.640;2022-08-19T04:13:30;12.63;;;11.43;;
36829;SDS011;22767;47.328;9.640;2022-08-19T04:16:18;11.48;;;10.38;;
36829;SDS011;22767;47.328;9.640;2022-08-19T04:19:05;12.23;;;11.13;;
36829;SDS011;22767;47.328;9.640;2022-08-19T04:21:53;12.10;;;10.98;;
36829;SDS011;22767;47.328;9.640;2022-08-19T04:24:39;12.20;;;11.02;;
36829;SDS011;22767;47.328;9.640;2022-08-19T04:27:26;11.85;;;10.68;;
36829;SDS011;22767;47.328;9.640;2022-08-19T04:30:14;14.52;;;13.02;;
36829;SDS011;22767;47.328;9.640;2022-08-19T04:33:03;15.07;;;13.63;;
36829;SDS011;22767;47.328;9.640;2022-08-19T04:35:50;14.43;;;13.02;;
36829;SDS011;22767;47.328;9.640;2022-08-19T04:38:37;11.32;;;10.23;;
36829;SDS011;22767;47.328;9.640;2022-08-19T04:41:23;9.98;;;9.07;;
36829;SDS011;22767;47.328;9.640;2022-08-19T04:44:29;8.70;;;7.90;;
36829;SDS011;22767;47.328;9.640;2022-08-19T04:47:16;12.30;;;11.05;;
36829;SDS011;22767;47.328;9.640;2022-08-19T04:56:50;9.18;;;8.38;;
36829;SDS011;22767;47.328;9.640;2022-08-19T04:59:57;7.07;;;6.38;;
36829;SDS011;22767;47.328;9.640;2022-08-19T05:02:44;6.70;;;6.10;;
36829;SDS011;22767;47.328;9.640;2022-08-19T05:05:30;5.88;;;5.28;;
36829;SDS011;22767;47.328;9.640;2022-08-19T05:08:19;7.68;;;6.97;;
36829;SDS011;22767;47.328;9.640;2022-08-19T05:11:09;5.70;;;5.20;;
36829;SDS011;22767;47.328;9.640;2022-08-19T05:13:57;5.10;;;4.70;;
36829;SDS011;22767;47.328;9.640;2022-08-19T05:16:44;8.38;;;7.22;;
36829;SDS011;22767;47.328;9.640;2022-08-19T05:19:31;12.30;;;11.20;;
36829;SDS011;22767;47.328;9.640;2022-08-19T05:22:36;13.82;;;12.43;;
36829;SDS011;22767;47.328;9.640;2022-08-19T05:25:23;9.90;;;9.10;;
36829;SDS011;22767;47.328;9.640;2022-08-19T05:28:11;7.07;;;6.28;;
36829;SDS011;22767;47.328;9.640;2022-08-19T05:30:58;7.43;;;6.72;;
36829;SDS011;22767;47.328;9.640;2022-08-19T05:33:45;11.65;;;10.48;;
36829;SDS011;22767;47.328;9.640;2022-08-19T05:36:36;12.57;;;11.43;;
36829;SDS011;22767;47.328;9.640;2022-08-19T05:39:27;13.30;;;11.82;;
36829;SDS011;22767;47.328;9.640;2022-08-19T05:42:17;10.45;;;9.55;;
36829;SDS011;22767;47.328;9.640;2022-08-19T05:45:05;8.07;;;7.38;;
36829;SDS011;22767;47.328;9.640;2022-08-19T05:47:52;9.18;;;8.27;;
36829;SDS011;22767;47.328;9.640;2022-08-19T05:50:40;5.65;;;5.15;;
36829;SDS011;22767;47.328;9.640;2022-08-19T05:53:30;4.78;;;4.38;;
36829;SDS011;22767;47.328;9.640;2022-08-19T05:56:17;5.03;;;4.50;;
36829;SDS011;22767;47.328;9.640;2022-08-19T05:59:05;6.90;;;6.35;;
36829;SDS011;22767;47.328;9.640;2022-08-19T06:01:54;8.43;;;7.68;;
36829;SDS011;22767;47.328;9.640;2022-08-19T06:04:43;10.27;;;7.18;;
36829;SDS011;22767;47.328;9.640;2022-08-19T06:07:30;8.40;;;7.10;;
36829;SDS011;22767;47.328;9.640;2022-08-19T06:10:16;7.18;;;6.47;;
36829;SDS011;22767;47.328;9.640;2022-08-19T06:13:03;7.45;;;6.70;;
36829;SDS011;22767;47.328;9.640;2022-08-19T06:15:51;12.40;;;11.10;;
36829;SDS011;22767;47.328;9.640;2022-08-19T06:18:40;11.80;;;10.60;;
36829;SDS011;22767;47.328;9.640;2022-08-19T06:21:26;10.02;;;8.57;;
36829;SDS011;22767;47.328;9.640;2022-08-19T06:24:14;9.45;;;8.52;;
36829;SDS011;22767;47.328;9.640;2022-08-19T06:27:04;10.48;;;9.38;;
36829;SDS011;22767;47.328;9.640;2022-08-19T06:29:53;9.95;;;8.93;;
36829;SDS011;22767;47.328;9.640;2022-08-19T06:32:41;10.70;;;9.63;;
36829;SDS011;22767;47.328;9.640;2022-08-19T06:35:29;10.23;;;9.23;;
36829;SDS011;22767;47.328;9.640;2022-08-19T06:38:23;9.77;;;8.88;;
36829;SDS011;22767;47.328;9.640;2022-08-19T06:41:12;10.23;;;9.25;;
36829;SDS011;22767;47.328;9.640;2022-08-19T06:43:59;9.18;;;8.35;;
36829;SDS011;22767;47.328;9.640;2022-08-19T06:46:50;9.20;;;8.32;;
36829;SDS011;22767;47.328;9.640;2022-08-19T06:49:41;8.55;;;7.82;;
36829;SDS011;22767;47.328;9.640;2022-08-19T06:52:37;8.70;;;7.80;;
36829;SDS011;22767;47.328;9.640;2022-08-19T06:55:28;7.57;;;6.88;;
36829;SDS011;22767;47.328;9.640;2022-08-19T06:58:21;9.23;;;8.43;;
36829;SDS011;22767;47.328;9.640;2022-08-19T07:01:13;8.95;;;8.05;;
36829;SDS011;22767;47.328;9.640;2022-08-19T07:04:13;8.43;;;7.28;;
36829;SDS011;22767;47.328;9.640;2022-08-19T07:07:06;10.98;;;7.68;;
36829;SDS011;22767;47.328;9.640;2022-08-19T07:10:03;10.67;;;8.37;;
36829;SDS011;22767;47.328;9.640;2022-08-19T07:12:53;10.75;;;9.27;;
36829;SDS011;22767;47.328;9.640;2022-08-19T07:15:49;9.77;;;8.55;;
36829;SDS011;22767;47.328;9.640;2022-08-19T07:21:30;10.48;;;8.18;;
36829;SDS011;22767;47.328;9.640;2022-08-19T07:24:24;9.40;;;7.50;;
36829;SDS011;22767;47.328;9.640;2022-08-19T07:27:19;8.27;;;7.47;;
36829;SDS011;22767;47.328;9.640;2022-08-19T07:30:08;9.80;;;8.20;;
36829;SDS011;22767;47.328;9.640;2022-08-19T07:33:00;9.73;;;8.75;;
36829;SDS011;22767;47.328;9.640;2022-08-19T07:35:51;10.27;;;9.25;;
36829;SDS011;22767;47.328;9.640;2022-08-19T07:38:44;9.55;;;8.48;;
36829;SDS011;22767;47.328;9.640;2022-08-19T07:41:43;9.38;;;8.45;;
36829;SDS011;22767;47.328;9.640;2022-08-19T07:44:31;8.73;;;7.93;;
36829;SDS011;22767;47.328;9.640;2022-08-19T07:47:19;9.50;;;8.60;;
36829;SDS011;22767;47.328;9.640;2022-08-19T07:50:07;9.63;;;8.73;;
36829;SDS011;22767;47.328;9.640;2022-08-19T07:52:54;9.35;;;8.43;;
36829;SDS011;22767;47.328;9.640;2022-08-19T07:55:42;10.57;;;9.52;;
36829;SDS011;22767;47.328;9.640;2022-08-19T07:58:29;10.02;;;9.02;;
36829;SDS011;22767;47.328;9.640;2022-08-19T08:01:17;10.55;;;9.05;;
36829;SDS011;22767;47.328;9.640;2022-08-19T08:04:04;11.02;;;9.05;;
36829;SDS011;22767;47.328;9.640;2022-08-19T08:07:09;9.02;;;8.13;;
36829;SDS011;22767;47.328;9.640;2022-08-19T08:10:14;8.20;;;7.25;;
36829;SDS011;22767;47.328;9.640;2022-08-19T08:13:02;9.10;;;8.20;;
36829;SDS011;22767;47.328;9.640;2022-08-19T08:15:50;10.25;;;7.60;;
36829;SDS011;22767;47.328;9.640;2022-08-19T08:18:36;9.52;;;8.43;;
36829;SDS011;22767;47.328;9.640;2022-08-19T08:21:26;7.50;;;6.75;;
36829;SDS011;22767;47.328;9.640;2022-08-19T08:24:13;8.20;;;7.40;;
36829;SDS011;22767;47.328;9.640;2022-08-19T08:27:00;7.78;;;6.57;;
36829;SDS011;22767;47.328;9.640;2022-08-19T08:29:47;6.22;;;5.53;;
36829;SDS011;22767;47.328;9.640;2022-08-19T08:32:34;6.53;;;5.93;;
36829;SDS011;22767;47.328;9.640;2022-08-19T08:35:22;7.15;;;6.45;;
36829;SDS011;22767;47.328;9.640;2022-08-19T08:38:11;6.70;;;5.72;;
36829;SDS011;22767;47.328;9.640;2022-08-19T08:41:00;7.43;;;6.63;;
36829;SDS011;22767;47.328;9.640;2022-08-19T08:43:51;7.25;;;6.43;;
36829;SDS011;22767;47.328;9.640;2022-08-19T08:52:22;10.52;;;9.40;;
36829;SDS011;22767;47.328;9.640;2022-08-19T08:55:11;9.18;;;8.27;;
36829;SDS011;22767;47.328;9.640;2022-08-19T08:58:03;8.43;;;7.63;;
36829;SDS011;22767;47.328;9.640;2022-08-19T09:00:51;12.70;;;10.90;;
36829;SDS011;22767;47.328;9.640;2022-08-19T09:03:40;12.35;;;11.02;;
36829;SDS011;22767;47.328;9.640;2022-08-19T09:09:45;13.60;;;12.18;;
36829;SDS011;22767;47.328;9.640;2022-08-19T09:15:47;10.95;;;9.90;;
36829;SDS011;22767;47.328;9.640;2022-08-19T09:18:43;11.00;;;9.90;;
36829;SDS011;22767;47.328;9.640;2022-08-19T09:21:36;20.08;;;10.38;;
36829;SDS011;22767;47.328;9.640;2022-08-19T09:24:30;11.55;;;9.90;;
36829;SDS011;22767;47.328;9.640;2022-08-19T09:27:28;12.65;;;9.32;;
36829;SDS011;22767;47.328;9.640;2022-08-19T09:30:20;22.45;;;10.10;;
36829;SDS011;22767;47.328;9.640;2022-08-19T09:33:08;11.43;;;9.75;;
36829;SDS011;22767;47.328;9.640;2022-08-19T09:36:02;10.02;;;9.00;;
36829;SDS011;22767;47.328;9.640;2022-08-19T09:38:49;9.48;;;8.55;;
36829;SDS011;22767;47.328;9.640;2022-08-19T09:41:35;6.63;;;6.03;;
36829;SDS011;22767;47.328;9.640;2022-08-19T09:44:22;6.43;;;5.82;;
36829;SDS011;22767;47.328;9.640;2022-08-19T09:47:10;7.25;;;6.53;;
36829;SDS011;22767;47.328;9.640;2022-08-19T09:49:57;10.68;;;9.60;;
36829;SDS011;22767;47.328;9.640;2022-08-19T09:52:46;10.15;;;9.02;;
36829;SDS011;22767;47.328;9.640;2022-08-19T09:55:33;10.00;;;8.95;;
36829;SDS011;22767;47.328;9.640;2022-08-19T09:58:20;9.60;;;8.60;;
36829;SDS011;22767;47.328;9.640;2022-08-19T10:01:14;9.30;;;8.35;;
36829;SDS011;22767;47.328;9.640;2022-08-19T10:06:55;7.05;;;6.22;;
36829;SDS011;22767;47.328;9.640;2022-08-19T10:09:41;6.95;;;6.03;;
36829;SDS011;22767;47.328;9.640;2022-08-19T10:12:28;7.20;;;6.53;;
36829;SDS011;22767;47.328;9.640;2022-08-19T10:15:16;7.57;;;6.80;;
36829;SDS011;22767;47.328;9.640;2022-08-19T10:18:06;7.38;;;6.63;;
36829;SDS011;22767;47.328;9.640;2022-08-19T10:21:01;7.70;;;6.90;;
36829;SDS011;22767;47.328;9.640;2022-08-19T10:23:50;7.07;;;6.38;;
36829;SDS011;22767;47.328;9.640;2022-08-19T10:26:37;6.80;;;6.15;;
36829;SDS011;22767;47.328;9.640;2022-08-19T10:29:24;6.10;;;5.50;;
36829;SDS011;22767;47.328;9.640;2022-08-19T10:32:13;4.15;;;3.85;;
36829;SDS011;22767;47.328;9.640;2022-08-19T10:34:59;3.65;;;3.35;;
36829;SDS011;22767;47.328;9.640;2022-08-19T10:37:46;3.83;;;3.53;;
36829;SDS011;22767;47.328;9.640;2022-08-19T12:33:04;1.50;;;0.73;;
36829;SDS011;22767;47.328;9.640;2022-08-19T12:35:51;1.42;;;0.80;;
36829;SDS011;22767;47.328;9.640;2022-08-19T12:38:38;0.70;;;0.70;;
36829;SDS011;22767;47.328;9.640;2022-08-19T12:41:25;0.50;;;0.50;;
36829;SDS011;22767;47.328;9.640;2022-08-19T12:44:12;0.47;;;0.47;;
36829;SDS011;22767;47.328;9.640;2022-08-19T12:46:59;0.63;;;0.60;;
36829;SDS011;22767;47.328;9.640;2022-08-19T12:49:46;0.47;;;0.43;;
36829;SDS011;22767;47.328;9.640;2022-08-19T12:52:33;0.45;;;0.45;;
36829;SDS011;22767;47.328;9.640;2022-08-19T12:55:22;1.15;;;0.40;;
36829;SDS011;22767;47.328;9.640;2022-08-19T12:58:08;0.90;;;0.38;;
36829;SDS011;22767;47.328;9.640;2022-08-19T13:00:56;0.63;;;0.40;;
36829;SDS011;22767;47.328;9.640;2022-08-19T13:03:42;0.40;;;0.40;;
36829;SDS011;22767;47.328;9.640;2022-08-19T13:06:30;0.88;;;0.40;;
36829;SDS011;22767;47.328;9.640;2022-08-19T13:09:17;2.17;;;0.77;;
36829;SDS011;22767;47.328;9.640;2022-08-19T13:12:03;1.05;;;0.40;;
36829;SDS011;22767;47.328;9.640;2022-08-19T13:14:53;1.17;;;0.45;;
36829;SDS011;22767;47.328;9.640;2022-08-19T13:17:39;1.17;;;0.30;;
36829;SDS011;22767;47.328;9.640;2022-08-19T13:20:26;0.68;;;0.40;;
36829;SDS011;22767;47.328;9.640;2022-08-19T13:23:13;0.35;;;0.35;;
36829;SDS011;22767;47.328;9.640;2022-08-19T13:26:00;0.88;;;0.70;;
36829;SDS011;22767;47.328;9.640;2022-08-19T13:28:47;1.15;;;0.65;;
36829;SDS011;22767;47.328;9.640;2022-08-19T13:31:55;1.85;;;0.50;;
36829;SDS011;22767;47.328;9.640;2022-08-19T13:35:01;0.38;;;0.35;;
36829;SDS011;22767;47.328;9.640;2022-08-19T13:37:50;0.90;;;0.90;;
36829;SDS011;22767;47.328;9.640;2022-08-19T13:43:10;0.33;;;0.33;;
36829;SDS011;22767;47.328;9.640;2022-08-19T13:46:08;0.40;;;0.40;;
36829;SDS011;22767;47.328;9.640;2022-08-19T13:48:59;0.40;;;0.40;;
36829;SDS011;22767;47.328;9.640;2022-08-19T13:51:45;1.75;;;0.55;;
36829;SDS011;22767;47.328;9.640;2022-08-19T13:54:35;1.23;;;0.70;;
36829;SDS011;22767;47.328;9.640;2022-08-19T14:00:44;1.77;;;0.98;;
36829;SDS011;22767;47.328;9.640;2022-08-19T14:03:36;1.13;;;0.80;;
36829;SDS011;22767;47.328;9.640;2022-08-19T14:06:54;0.55;;;0.55;;
36829;SDS011;22767;47.328;9.640;2022-08-19T14:10:13;0.60;;;0.60;;
36829;SDS011;22767;47.328;9.640;2022-08-19T14:13:32;1.02;;;0.90;;
36829;SDS011;22767;47.328;9.640;2022-08-19T14:16:50;1.33;;;0.80;;
36829;SDS011;22767;47.328;9.640;2022-08-19T14:19:37;0.95;;;0.57;;
36829;SDS011;22767;47.328;9.640;2022-08-19T14:28:38;0.50;;;0.50;;
36829;SDS011;22767;47.328;9.640;2022-08-19T14:54:34;1.15;;;0.90;;
36829;SDS011;22767;47.328;9.640;2022-08-19T14:57:21;2.25;;;1.30;;
36829;SDS011;22767;47.328;9.640;2022-08-19T15:00:07;2.20;;;1.15;;
36829;SDS011;22767;47.328;9.640;2022-08-19T15:02:58;1.42;;;1.20;;
36829;SDS011;22767;47.328;9.640;2022-08-19T15:05:44;1.00;;;0.80;;
36829;SDS011;22767;47.328;9.640;2022-08-19T15:08:32;0.60;;;0.60;;
36829;SDS011;22767;47.328;9.640;2022-08-19T15:11:24;1.23;;;0.63;;
36829;SDS011;22767;47.328;9.640;2022-08-19T15:14:12;0.90;;;0.90;;
36829;SDS011;22767;47.328;9.640;2022-08-19T15:17:01;0.90;;;0.60;;
36829;SDS011;22767;47.328;9.640;2022-08-19T15:19:51;1.65;;;1.35;;
36829;SDS011;22767;47.328;9.640;2022-08-19T15:22:40;1.30;;;1.25;;
36829;SDS011;22767;47.328;9.640;2022-08-19T15:25:27;2.45;;;1.80;;
36829;SDS011;22767;47.328;9.640;2022-08-19T15:28:13;2.58;;;2.00;;
36829;SDS011;22767;47.328;9.640;2022-08-19T15:31:01;1.50;;;1.40;;
36829;SDS011;22767;47.328;9.640;2022-08-19T15:33:48;3.08;;;2.58;;
36829;SDS011;22767;47.328;9.640;2022-08-19T15:36:35;1.60;;;1.50;;
36829;SDS011;22767;47.328;9.640;2022-08-19T15:39:22;1.98;;;1.50;;
36829;SDS011;22767;47.328;9.640;2022-08-19T15:42:08;1.92;;;1.63;;
36829;SDS011;22767;47.328;9.640;2022-08-19T15:44:54;2.20;;;2.00;;
36829;SDS011;22767;47.328;9.640;2022-08-19T15:47:41;2.85;;;2.20;;
36829;SDS011;22767;47.328;9.640;2022-08-19T15:50:28;3.67;;;2.40;;
36829;SDS011;22767;47.328;9.640;2022-08-19T15:53:16;2.47;;;2.25;;
36829;SDS011;22767;47.328;9.640;2022-08-19T15:56:03;4.22;;;2.88;;
36829;SDS011;22767;47.328;9.640;2022-08-19T15:58:49;3.10;;;2.80;;
36829;SDS011;22767;47.328;9.640;2022-08-19T16:01:54;4.82;;;3.40;;
36829;SDS011;22767;47.328;9.640;2022-08-19T16:04:58;2.67;;;2.47;;
36829;SDS011;22767;47.328;9.640;2022-08-19T16:08:04;2.90;;;2.60;;
36829;SDS011;22767;47.328;9.640;2022-08-19T16:10:51;3.28;;;2.08;;
36829;SDS011;22767;47.328;9.640;2022-08-19T16:13:37;3.72;;;2.20;;
36829;SDS011;22767;47.328;9.640;2022-08-19T16:16:25;5.32;;;4.57;;
36829;SDS011;22767;47.328;9.640;2022-08-19T16:19:15;3.00;;;2.80;;
36829;SDS011;22767;47.328;9.640;2022-08-19T16:22:01;3.28;;;2.97;;
36829;SDS011;22767;47.328;9.640;2022-08-19T16:24:48;2.95;;;2.65;;
36829;SDS011;22767;47.328;9.640;2022-08-19T16:27:34;3.40;;;3.10;;
36829;SDS011;22767;47.328;9.640;2022-08-19T16:30:21;4.32;;;4.03;;
36829;SDS011;22767;47.328;9.640;2022-08-19T16:33:08;4.57;;;4.28;;
36829;SDS011;22767;47.328;9.640;2022-08-19T16:35:54;4.88;;;4.47;;
36829;SDS011;22767;47.328;9.640;2022-08-19T16:38:41;5.90;;;5.07;;
36829;SDS011;22767;47.328;9.640;2022-08-19T16:41:30;6.38;;;5.78;;
36829;SDS011;22767;47.328;9.640;2022-08-19T16:44:17;6.18;;;5.68;;
36829;SDS011;22767;47.328;9.640;2022-08-19T16:47:05;7.22;;;5.55;;
36829;SDS011;22767;47.328;9.640;2022-08-19T16:49:51;7.18;;;6.05;;
36829;SDS011;22767;47.328;9.640;2022-08-19T16:52:38;6.07;;;5.57;;
36829;SDS011;22767;47.328;9.640;2022-08-19T16:55:24;6.93;;;6.32;;
36829;SDS011;22767;47.328;9.640;2022-08-19T16:58:12;6.47;;;5.88;;
36829;SDS011;22767;47.328;9.640;2022-08-19T17:00:59;8.13;;;7.43;;
36829;SDS011;22767;47.328;9.640;2022-08-19T17:03:46;7.07;;;6.38;;
36829;SDS011;22767;47.328;9.640;2022-08-19T17:06:34;5.80;;;5.30;;
36829;SDS011;22767;47.328;9.640;2022-08-19T17:09:22;8.20;;;6.70;;
36829;SDS011;22767;47.328;9.640;2022-08-19T17:12:08;5.10;;;4.60;;
36829;SDS011;22767;47.328;9.640;2022-08-19T17:14:55;7.13;;;5.25;;
36829;SDS011;22767;47.328;9.640;2022-08-19T17:17:41;6.28;;;5.78;;
36829;SDS011;22767;47.328;9.640;2022-08-19T17:20:29;5.63;;;4.43;;
36829;SDS011;22767;47.328;9.640;2022-08-19T17:23:16;7.53;;;6.78;;
36829;SDS011;22767;47.328;9.640;2022-08-19T17:26:03;5.82;;;5.32;;
36829;SDS011;22767;47.328;9.640;2022-08-19T17:28:50;5.00;;;4.43;;
36829;SDS011;22767;47.328;9.640;2022-08-19T17:31:37;6.53;;;5.93;;
36829;SDS011;22767;47.328;9.640;2022-08-19T17:34:23;6.93;;;6.22;;
36829;SDS011;22767;47.328;9.640;2022-08-19T17:37:10;5.47;;;4.97;;
36829;SDS011;22767;47.328;9.640;2022-08-19T17:39:56;6.00;;;5.50;;
36829;SDS011;22767;47.328;9.640;2022-08-19T17:42:43;5.15;;;4.65;;
36829;SDS011;22767;47.328;9.640;2022-08-19T17:45:30;5.50;;;4.60;;
36829;SDS011;22767;47.328;9.640;2022-08-19T17:48:16;7.00;;;6.40;;
36829;SDS011;22767;47.328;9.640;2022-08-19T17:54:01;6.03;;;5.53;;
36829;SDS011;22767;47.328;9.640;2022-08-19T17:56:50;5.22;;;4.82;;
36829;SDS011;22767;47.328;9.640;2022-08-19T17:59:37;6.10;;;5.60;;
36829;SDS011;22767;47.328;9.640;2022-08-19T18:02:23;6.68;;;5.90;;
36829;SDS011;22767;47.328;9.640;2022-08-19T18:05:10;6.20;;;5.70;;
36829;SDS011;22767;47.328;9.640;2022-08-19T18:07:58;7.72;;;7.03;;
36829;SDS011;22767;47.328;9.640;2022-08-19T18:10:44;9.48;;;8.57;;
36829;SDS011;22767;47.328;9.640;2022-08-19T18:13:31;9.15;;;8.35;;
36829;SDS011;22767;47.328;9.640;2022-08-19T18:16:17;7.05;;;6.45;;
36829;SDS011;22767;47.328;9.640;2022-08-19T18:19:06;7.30;;;6.60;;
36829;SDS011;22767;47.328;9.640;2022-08-19T18:21:53;7.55;;;6.80;;
36829;SDS011;22767;47.328;9.640;2022-08-19T18:24:40;6.75;;;6.15;;
36829;SDS011;22767;47.328;9.640;2022-08-19T18:27:26;5.38;;;4.88;;
36829;SDS011;22767;47.328;9.640;2022-08-19T18:30:13;5.20;;;4.80;;
36829;SDS011;22767;47.328;9.640;2022-08-19T18:33:00;4.07;;;3.75;;
36829;SDS011;22767;47.328;9.640;2022-08-19T18:35:48;4.30;;;4.00;;
36829;SDS011;22767;47.328;9.640;2022-08-19T18:38:36;3.22;;;2.92;;
36829;SDS011;22767;47.328;9.640;2022-08-19T18:41:44;5.85;;;4.05;;
36829;SDS011;22767;47.328;9.640;2022-08-19T18:44:49;4.38;;;2.95;;
36829;SDS011;22767;47.328;9.640;2022-08-19T18:47:54;2.75;;;2.50;;
36829;SDS011;22767;47.328;9.640;2022-08-19T18:50:59;2.45;;;2.25;;
36829;SDS011;22767;47.328;9.640;2022-08-19T18:53:46;2.30;;;2.10;;
36829;SDS011;22767;47.328;9.640;2022-08-19T18:56:33;2.50;;;2.30;;
36829;SDS011;22767;47.328;9.640;2022-08-19T18:59:26;1.90;;;1.67;;
36829;SDS011;22767;47.328;9.640;2022-08-19T19:02:13;2.13;;;2.03;;
36829;SDS011;22767;47.328;9.640;2022-08-19T19:05:00;2.50;;;2.30;;
36829;SDS011;22767;47.328;9.640;2022-08-19T19:07:46;2.58;;;2.38;;
36829;SDS011;22767;47.328;9.640;2022-08-19T19:10:33;2.80;;;2.60;;
36829;SDS011;22767;47.328;9.640;2022-08-19T19:13:20;2.45;;;2.35;;
36829;SDS011;22767;47.328;9.640;2022-08-19T19:16:06;2.70;;;2.50;;
36829;SDS011;22767;47.328;9.640;2022-08-19T19:18:55;2.60;;;2.40;;
36829;SDS011;22767;47.328;9.640;2022-08-19T19:21:43;2.95;;;2.55;;
36829;SDS011;22767;47.328;9.640;2022-08-19T19:24:32;2.15;;;2.00;;
36829;SDS011;22767;47.328;9.640;2022-08-19T19:27:19;3.97;;;3.67;;
36829;SDS011;22767;47.328;9.640;2022-08-19T19:30:06;3.50;;;3.20;;
36829;SDS011;22767;47.328;9.640;2022-08-19T19:32:52;2.55;;;2.35;;
36829;SDS011;22767;47.328;9.640;2022-08-19T19:35:40;2.15;;;2.05;;
36829;SDS011;22767;47.328;9.640;2022-08-19T19:38:28;3.17;;;2.70;;
36829;SDS011;22767;47.328;9.640;2022-08-19T19:41:15;3.88;;;3.40;;
36829;SDS011;22767;47.328;9.640;2022-08-19T19:44:02;5.00;;;4.57;;
36829;SDS011;22767;47.328;9.640;2022-08-19T19:46:49;3.80;;;3.28;;